createdAt,value
2023-03-25T00:01:01.058Z,102066.94
2023-03-25T00:03:16.019Z,102062.52
2023-03-25T00:05:29.088Z,102064.34
2023-03-25T00:07:41.824Z,102064.11
2023-03-25T00:09:55.628Z,102066.15
2023-03-25T00:12:08.479Z,102066.61
2023-03-25T00:14:21.160Z,102071.45
2023-03-25T00:16:34.455Z,102070.23
2023-03-25T00:18:49.166Z,102070.77
2023-03-25T00:21:03.299Z,102073.64
2023-03-25T00:23:16.086Z,102077.83
2023-03-25T00:25:28.896Z,102095.50
2023-03-25T00:27:42.032Z,102120.92
2023-03-25T00:29:55.757Z,102132.85
2023-03-25T00:32:08.860Z,102142.54
2023-03-25T00:34:22.014Z,102146.77
2023-03-25T00:36:38.788Z,102141.70
2023-03-25T00:38:54.314Z,102146.34
2023-03-25T00:41:14.761Z,102144.83
2023-03-25T00:43:27.346Z,102144.05
2023-03-25T00:45:40.086Z,102139.79
2023-03-25T00:47:52.751Z,102134.05
2023-03-25T00:50:05.878Z,102132.09
2023-03-25T00:52:19.403Z,102125.68
2023-03-25T00:54:35.287Z,102126.25
2023-03-25T00:56:48.260Z,102125.76
2023-03-25T00:59:01.733Z,102126.71
2023-03-25T01:01:20.033Z,102129.35
2023-03-25T01:03:33.107Z,102127.92
2023-03-25T01:05:46.694Z,102128.31
2023-03-25T01:07:59.577Z,102128.84
2023-03-25T01:10:16.469Z,102133.50
2023-03-25T01:12:29.928Z,102125.86
2023-03-25T01:14:43.261Z,102128.13
2023-03-25T01:16:56.782Z,102129.16
2023-03-25T01:19:10.100Z,102133.94
2023-03-25T01:21:23.266Z,102130.98
2023-03-25T01:23:36.195Z,102128.24
2023-03-25T01:25:50.653Z,102130.35
2023-03-25T01:28:03.468Z,102130.57
2023-03-25T01:30:18.513Z,102129.38
2023-03-25T01:32:32.485Z,102125.15
2023-03-25T01:34:46.048Z,102128.01
2023-03-25T01:36:59.704Z,102127.56
2023-03-25T01:39:13.743Z,102124.49
2023-03-25T01:41:29.215Z,102129.02
2023-03-25T01:43:46.274Z,102131.92
2023-03-25T01:45:58.783Z,102131.67
2023-03-25T01:48:17.103Z,102136.83
2023-03-25T01:50:30.909Z,102138.55
2023-03-25T01:52:45.098Z,102142.70
2023-03-25T01:54:59.491Z,102143.54
2023-03-25T01:57:13.987Z,102146.50
2023-03-25T01:59:30.849Z,102147.88
2023-03-25T02:01:46.846Z,102149.66
2023-03-25T02:04:10.798Z,102155.07
2023-03-25T02:06:29.722Z,102153.39
2023-03-25T02:08:44.843Z,102152.96
2023-03-25T02:10:58.573Z,102152.69
2023-03-25T02:13:11.774Z,102159.77
2023-03-25T02:15:24.863Z,102160.25
2023-03-25T02:17:46.174Z,102156.89
2023-03-25T02:20:28.793Z,102155.99
2023-03-25T02:23:32.392Z,102151.83
2023-03-25T02:26:14.748Z,102148.55
2023-03-25T02:28:37.975Z,102150.96
2023-03-25T02:31:15.226Z,102150.02
2023-03-25T02:34:05.181Z,102149.31
2023-03-25T02:36:51.498Z,102152.57
2023-03-25T02:39:11.470Z,102155.64
2023-03-25T02:41:32.904Z,102156.69
2023-03-25T02:43:50.082Z,102157.39
2023-03-25T02:46:08.066Z,102156.86
2023-03-25T02:48:25.701Z,102157.96
2023-03-25T02:50:42.073Z,102154.88
2023-03-25T02:52:59.459Z,102156.25
2023-03-25T02:55:16.096Z,102154.35
2023-03-25T02:57:32.132Z,102153.60
2023-03-25T02:59:47.286Z,102149.91
2023-03-25T03:02:04.317Z,102147.89
2023-03-25T03:04:17.335Z,102147.73
2023-03-25T03:06:32.151Z,102149.52
2023-03-25T03:09:02.128Z,102151.17
2023-03-25T03:11:21.599Z,102148.95
2023-03-25T03:13:46.431Z,102150.54
2023-03-25T03:16:10.510Z,102153.98
2023-03-25T03:18:35.411Z,102155.88
2023-03-25T03:20:56.654Z,102163.48
2023-03-25T03:23:14.325Z,102173.39
2023-03-25T03:25:35.118Z,102183.92
2023-03-25T03:27:55.175Z,102201.70
2023-03-25T03:30:16.541Z,102207.30
2023-03-25T03:32:36.031Z,102212.67
2023-03-25T03:34:52.503Z,102222.39
2023-03-25T03:37:09.102Z,102223.95
2023-03-25T03:39:26.676Z,102221.86
2023-03-25T03:41:45.769Z,102222.14
2023-03-25T03:44:01.503Z,102222.34
2023-03-25T03:46:19.599Z,102224.91
2023-03-25T03:48:36.201Z,102224.59
2023-03-25T03:50:54.027Z,102229.48
2023-03-25T03:53:12.962Z,102228.02
2023-03-25T03:55:30.586Z,102230.84
2023-03-25T03:57:46.199Z,102232.60
2023-03-25T04:00:09.303Z,102232.05
2023-03-25T04:02:33.760Z,102232.36
2023-03-25T04:04:46.666Z,102236.42
2023-03-25T04:07:06.629Z,102235.55
2023-03-25T04:09:29.109Z,102236.04
2023-03-25T04:11:41.964Z,102233.95
2023-03-25T04:13:58.905Z,102226.62
2023-03-25T04:16:12.862Z,102226.41
2023-03-25T04:18:25.509Z,102224.61
2023-03-25T04:20:39.348Z,102229.27
2023-03-25T04:22:52.927Z,102241.07
2023-03-25T04:25:05.908Z,102249.25
2023-03-25T04:27:18.589Z,102248.63
2023-03-25T04:29:33.197Z,102253.49
2023-03-25T04:31:47.328Z,102253.64
2023-03-25T04:34:00.724Z,102254.88
2023-03-25T04:36:16.433Z,102256.17
2023-03-25T04:38:30.532Z,102256.70
2023-03-25T04:40:48.098Z,102249.47
2023-03-25T04:43:01.167Z,102248.91
2023-03-25T04:45:17.853Z,102249.60
2023-03-25T04:47:31.727Z,102249.20
2023-03-25T04:49:46.191Z,102252.04
2023-03-25T04:52:03.222Z,102254.11
2023-03-25T04:54:17.797Z,102253.31
2023-03-25T04:56:30.836Z,102250.41
2023-03-25T04:58:45.575Z,102247.05
2023-03-25T05:00:58.515Z,102246.77
2023-03-25T05:03:12.818Z,102248.78
2023-03-25T05:05:26.755Z,102250.57
2023-03-25T05:07:39.800Z,102249.60
2023-03-25T05:09:52.934Z,102247.10
2023-03-25T05:12:05.915Z,102247.11
2023-03-25T05:14:20.677Z,102248.64
2023-03-25T05:16:33.980Z,102245.83
2023-03-25T05:18:47.839Z,102247.62
2023-03-25T05:21:01.995Z,102247.23
2023-03-25T05:23:17.383Z,102245.71
2023-03-25T05:25:30.177Z,102241.41
2023-03-25T05:27:43.814Z,102239.45
2023-03-25T05:29:59.440Z,102238.80
2023-03-25T05:32:14.900Z,102240.65
2023-03-25T05:34:31.084Z,102241.96
2023-03-25T05:36:43.666Z,102240.46
2023-03-25T05:38:57.845Z,102238.03
2023-03-25T05:41:11.808Z,102236.20
2023-03-25T05:43:25.092Z,102233.27
2023-03-25T05:45:38.893Z,102237.56
2023-03-25T05:47:52.227Z,102235.66
2023-03-25T05:50:04.993Z,102233.88
2023-03-25T05:52:17.992Z,102230.20
2023-03-25T05:54:31.902Z,102229.54
2023-03-25T05:56:45.982Z,102227.14
2023-03-25T05:58:59.284Z,102225.63
2023-03-25T06:01:31.169Z,102220.77
2023-03-25T06:03:44.660Z,102214.09
2023-03-25T06:05:58.016Z,102211.22
2023-03-25T06:08:10.672Z,102209.30
2023-03-25T06:10:24.186Z,102205.39
2023-03-25T06:12:39.844Z,102206.58
2023-03-25T06:14:55.108Z,102205.95
2023-03-25T06:17:08.125Z,102206.27
2023-03-25T06:19:21.016Z,102201.73
2023-03-25T06:21:35.616Z,102202.69
2023-03-25T06:23:49.261Z,102199.82
2023-03-25T06:26:01.958Z,102191.51
2023-03-25T06:28:14.563Z,102193.73
2023-03-25T06:30:28.090Z,102186.29
2023-03-25T06:32:41.511Z,102188.20
2023-03-25T06:34:54.360Z,102184.46
2023-03-25T06:37:07.605Z,102185.92
2023-03-25T06:39:20.442Z,102181.16
2023-03-25T06:41:33.088Z,102182.82
2023-03-25T06:44:00.513Z,102184.23
2023-03-25T06:46:46.944Z,102182.23
2023-03-25T06:49:02.279Z,102180.33
2023-03-25T06:51:15.187Z,102182.02
2023-03-25T06:53:28.287Z,102183.05
2023-03-25T06:55:42.594Z,102180.33
2023-03-25T06:57:57.631Z,102184.12
2023-03-25T07:00:13.129Z,102178.48
2023-03-25T07:02:26.010Z,102177.95
2023-03-25T07:04:39.580Z,102175.30
2023-03-25T07:06:53.141Z,102174.00
2023-03-25T07:09:05.951Z,102170.86
2023-03-25T07:11:20.506Z,102168.35
2023-03-25T07:13:34.143Z,102167.31
2023-03-25T07:15:47.378Z,102164.83
2023-03-25T07:18:01.175Z,102167.27
2023-03-25T07:20:17.473Z,102170.87
2023-03-25T07:22:30.612Z,102172.06
2023-03-25T07:24:43.332Z,102170.88
2023-03-25T07:26:56.561Z,102171.42
2023-03-25T07:29:12.712Z,102178.19
2023-03-25T07:31:25.563Z,102178.95
2023-03-25T07:33:39.092Z,102176.17
2023-03-25T07:35:52.572Z,102176.73
2023-03-25T07:38:06.003Z,102178.58
2023-03-25T07:40:19.307Z,102176.63
2023-03-25T07:42:32.111Z,102175.95
2023-03-25T07:45:08.528Z,102174.81
2023-03-25T07:47:22.314Z,102172.59
2023-03-25T07:49:37.199Z,102174.86
2023-03-25T07:51:52.324Z,102170.98
2023-03-25T07:54:05.808Z,102171.38
2023-03-25T07:56:19.885Z,102165.73
2023-03-25T07:58:32.682Z,102162.81
2023-03-25T08:00:46.209Z,102159.02
2023-03-25T08:02:59.547Z,102155.66
2023-03-25T08:05:13.566Z,102157.51
2023-03-25T08:07:26.645Z,102164.98
2023-03-25T08:09:39.606Z,102163.84
2023-03-25T08:11:53.832Z,102162.16
2023-03-25T08:14:08.575Z,102162.27
2023-03-25T08:16:21.688Z,102162.96
2023-03-25T08:18:34.761Z,102158.23
2023-03-25T08:20:49.119Z,102157.10
2023-03-25T08:23:02.331Z,102155.36
2023-03-25T08:25:17.243Z,102156.94
2023-03-25T08:27:30.011Z,102152.22
2023-03-25T08:29:44.122Z,102152.05
2023-03-25T08:31:57.385Z,102151.52
2023-03-25T08:34:10.407Z,102151.89
2023-03-25T08:36:24.344Z,102146.86
2023-03-25T08:38:37.082Z,102147.84
2023-03-25T08:40:50.045Z,102146.15
2023-03-25T08:43:02.713Z,102144.04
2023-03-25T08:45:16.782Z,102147.02
2023-03-25T08:47:30.046Z,102140.92
2023-03-25T08:49:42.721Z,102137.61
2023-03-25T08:51:58.915Z,102136.97
2023-03-25T08:54:12.045Z,102131.05
2023-03-25T08:56:25.389Z,102126.67
2023-03-25T08:58:38.553Z,102127.27
2023-03-25T09:00:55.514Z,102124.12
2023-03-25T09:03:09.979Z,102120.11
2023-03-25T09:05:23.089Z,102116.33
2023-03-25T09:07:37.306Z,102116.54
2023-03-25T09:09:50.542Z,102115.94
2023-03-25T09:12:03.620Z,102116.00
2023-03-25T09:14:16.574Z,102115.52
2023-03-25T09:16:30.376Z,102115.23
2023-03-25T09:18:43.224Z,102114.96
2023-03-25T09:21:01.427Z,102113.02
2023-03-25T09:23:16.503Z,102115.28
2023-03-25T09:25:29.480Z,102112.83
2023-03-25T09:27:43.016Z,102113.92
2023-03-25T09:29:56.389Z,102111.06
2023-03-25T09:32:10.205Z,102111.34
2023-03-25T09:34:22.953Z,102112.09
2023-03-25T09:36:35.837Z,102110.36
2023-03-25T09:38:48.761Z,102108.73
2023-03-25T09:41:01.967Z,102106.25
2023-03-25T09:43:38.872Z,102103.38
2023-03-25T09:45:53.258Z,102102.45
2023-03-25T09:48:13.518Z,102100.98
2023-03-25T09:50:27.991Z,102103.70
2023-03-25T09:52:50.969Z,102098.50
2023-03-25T09:55:08.211Z,102099.25
2023-03-25T09:57:25.786Z,102102.23
2023-03-25T09:59:45.199Z,102099.77
2023-03-25T10:02:05.730Z,102104.17
2023-03-25T10:04:56.153Z,102097.34
2023-03-25T10:07:19.918Z,102100.38
2023-03-25T10:09:51.065Z,102097.86
2023-03-25T10:12:12.249Z,102101.59
2023-03-25T10:14:36.347Z,102100.91
2023-03-25T10:17:09.552Z,102098.27
2023-03-25T10:19:36.147Z,102101.20
2023-03-25T10:21:56.725Z,102098.19
2023-03-25T10:24:17.387Z,102097.00
2023-03-25T10:26:33.644Z,102097.88
2023-03-25T10:28:52.984Z,102099.84
2023-03-25T10:31:08.850Z,102098.17
2023-03-25T10:33:32.647Z,102098.86
2023-03-25T10:35:49.640Z,102099.73
2023-03-25T10:38:13.886Z,102097.95
2023-03-25T10:40:32.814Z,102096.27
2023-03-25T10:42:56.609Z,102101.26
2023-03-25T10:45:16.267Z,102101.04
2023-03-25T10:47:33.027Z,102102.66
2023-03-25T10:49:50.254Z,102104.83
2023-03-25T10:52:05.162Z,102108.08
2023-03-25T10:54:20.941Z,102107.32
2023-03-25T10:56:38.839Z,102107.91
2023-03-25T10:58:54.688Z,102108.08
2023-03-25T11:01:16.249Z,102106.25
2023-03-25T11:03:34.099Z,102104.70
2023-03-25T11:05:47.359Z,102111.14
2023-03-25T11:08:11.903Z,102108.05
2023-03-25T11:10:37.179Z,102108.20
2023-03-25T11:12:50.357Z,102115.59
2023-03-25T11:15:04.472Z,102117.66
2023-03-25T11:17:26.744Z,102119.11
2023-03-25T11:19:44.033Z,102122.37
2023-03-25T11:22:02.220Z,102121.61
2023-03-25T11:24:18.400Z,102120.80
2023-03-25T11:26:39.536Z,102123.50
2023-03-25T11:28:57.791Z,102124.92
2023-03-25T11:31:20.167Z,102120.80
2023-03-25T11:33:32.862Z,102121.62
2023-03-25T11:35:50.508Z,102118.80
2023-03-25T11:38:04.554Z,102120.05
2023-03-25T11:40:22.027Z,102121.73
2023-03-25T11:42:43.563Z,102116.97
2023-03-25T11:45:00.729Z,102114.05
2023-03-25T11:47:23.455Z,102120.44
2023-03-25T11:49:38.565Z,102120.27
2023-03-25T11:51:52.925Z,102117.94
2023-03-25T11:54:11.377Z,102117.99
2023-03-25T11:56:30.415Z,102122.17
2023-03-25T11:58:45.082Z,102127.32
2023-03-25T12:01:07.104Z,102128.73
2023-03-25T12:03:29.954Z,102131.67
2023-03-25T12:05:45.110Z,102132.31
2023-03-25T12:08:05.221Z,102135.39
2023-03-25T12:10:26.985Z,102137.45
2023-03-25T12:12:59.667Z,102137.61
2023-03-25T12:15:26.580Z,102136.86
2023-03-25T12:17:52.292Z,102144.48
2023-03-25T12:20:16.916Z,102141.67
2023-03-25T12:22:40.545Z,102144.33
2023-03-25T12:25:11.804Z,102143.46
2023-03-25T12:27:37.530Z,102140.59
2023-03-25T12:29:55.969Z,102138.16
2023-03-25T12:32:23.283Z,102136.27
2023-03-25T12:34:50.471Z,102138.88
2023-03-25T12:37:12.597Z,102137.35
2023-03-25T12:39:42.201Z,102132.96
2023-03-25T12:42:07.954Z,102131.88
2023-03-25T12:44:34.901Z,102138.27
2023-03-25T12:47:17.682Z,102136.05
2023-03-25T12:49:46.797Z,102136.44
2023-03-25T12:52:08.057Z,102140.33
2023-03-25T12:54:37.364Z,102137.73
2023-03-25T12:56:57.736Z,102141.04
2023-03-25T12:59:39.643Z,102140.88
2023-03-25T13:02:04.365Z,102144.71
2023-03-25T13:04:39.262Z,102143.79
2023-03-25T13:07:03.900Z,102144.35
2023-03-25T13:09:24.863Z,102146.77
2023-03-25T13:11:42.129Z,102145.64
2023-03-25T13:13:57.838Z,102146.94
2023-03-25T13:16:16.282Z,102147.15
2023-03-25T13:18:32.800Z,102150.73
2023-03-25T13:20:50.609Z,102147.95
2023-03-25T13:23:07.222Z,102146.55
2023-03-25T13:25:29.514Z,102148.58
2023-03-25T13:27:46.248Z,102147.33
2023-03-25T13:30:02.480Z,102147.54
2023-03-25T13:32:21.237Z,102150.26
2023-03-25T13:34:39.098Z,102146.56
2023-03-25T13:37:00.547Z,102151.11
2023-03-25T13:39:22.555Z,102155.33
2023-03-25T13:41:42.134Z,102156.69
2023-03-25T13:44:04.390Z,102157.29
2023-03-25T13:46:20.930Z,102161.05
2023-03-25T13:48:40.038Z,102158.23
2023-03-25T13:50:53.799Z,102163.53
2023-03-25T13:53:10.858Z,102162.08
2023-03-25T13:55:28.051Z,102163.97
2023-03-25T13:58:06.641Z,102160.29
2023-03-25T14:00:44.947Z,102164.84
2023-03-25T14:03:42.490Z,102159.87
2023-03-25T14:06:30.537Z,102164.46
2023-03-25T14:09:20.072Z,102168.47
2023-03-25T14:11:38.076Z,102168.69
2023-03-25T14:13:55.947Z,102169.45
2023-03-25T14:16:13.471Z,102168.16
2023-03-25T14:18:26.380Z,102168.58
2023-03-25T14:20:43.862Z,102171.55
2023-03-25T14:23:02.396Z,102170.41
2023-03-25T14:25:30.446Z,102175.30
2023-03-25T14:27:43.606Z,102178.00
2023-03-25T14:30:01.766Z,102179.09
2023-03-25T14:32:33.951Z,102183.62
2023-03-25T14:34:50.510Z,102186.92
2023-03-25T14:37:29.819Z,102186.01
2023-03-25T14:39:48.812Z,102188.59
2023-03-25T14:42:14.381Z,102188.16
2023-03-25T14:44:29.872Z,102189.77
2023-03-25T14:46:47.584Z,102194.64
2023-03-25T14:49:22.957Z,102197.19
2023-03-25T14:51:59.878Z,102201.33
2023-03-25T14:54:23.535Z,102208.02
2023-03-25T14:56:45.419Z,102206.02
2023-03-25T14:59:02.656Z,102201.79
2023-03-25T15:01:20.617Z,102202.55
2023-03-25T15:03:39.970Z,102205.69
2023-03-25T15:06:00.906Z,102201.95
2023-03-25T15:08:27.431Z,102202.87
2023-03-25T15:10:43.339Z,102200.33
2023-03-25T15:13:03.172Z,102194.60
2023-03-25T15:15:33.582Z,102197.46
2023-03-25T15:17:53.081Z,102202.23
2023-03-25T15:20:38.689Z,102203.85
2023-03-25T15:23:11.231Z,102205.69
2023-03-25T15:25:25.067Z,102207.05
2023-03-25T15:28:02.945Z,102214.30
2023-03-25T15:30:42.259Z,102215.98
2023-03-25T15:33:12.310Z,102216.36
2023-03-25T15:35:56.033Z,102217.59
2023-03-25T15:38:45.844Z,102210.51
2023-03-25T15:41:14.963Z,102219.05
2023-03-25T15:44:00.806Z,102220.84
2023-03-25T15:46:39.524Z,102215.54
2023-03-25T15:49:33.127Z,102217.38
2023-03-25T15:52:01.770Z,102221.12
2023-03-25T15:54:31.589Z,102219.18
2023-03-25T15:56:48.863Z,102222.80
2023-03-25T15:59:06.633Z,102224.63
2023-03-25T16:01:31.158Z,102226.20
2023-03-25T16:03:47.371Z,102230.88
2023-03-25T16:06:02.681Z,102231.80
2023-03-25T16:08:20.851Z,102226.64
2023-03-25T16:10:37.298Z,102225.61
2023-03-25T16:12:53.583Z,102228.11
2023-03-25T16:15:11.400Z,102227.08
2023-03-25T16:17:29.799Z,102225.17
2023-03-25T16:19:45.773Z,102227.29
2023-03-25T16:22:04.724Z,102226.91
2023-03-25T16:24:18.686Z,102232.39
2023-03-25T16:26:43.536Z,102235.73
2023-03-25T16:28:58.663Z,102234.09
2023-03-25T16:31:17.619Z,102236.27
2023-03-25T16:33:32.904Z,102237.21
2023-03-25T16:35:48.704Z,102236.56
2023-03-25T16:38:04.901Z,102235.87
2023-03-25T16:40:28.116Z,102233.23
2023-03-25T16:42:41.159Z,102238.52
2023-03-25T16:44:54.281Z,102240.67
2023-03-25T16:47:07.619Z,102239.00
2023-03-25T16:49:29.506Z,102243.23
2023-03-25T16:51:42.446Z,102247.78
2023-03-25T16:53:57.260Z,102248.73
2023-03-25T16:56:28.116Z,102251.39
2023-03-25T16:58:57.184Z,102254.86
2023-03-25T17:01:17.692Z,102258.42
2023-03-25T17:03:47.161Z,102257.23
2023-03-25T17:06:08.052Z,102255.30
2023-03-25T17:08:23.571Z,102253.09
2023-03-25T17:10:47.092Z,102257.94
2023-03-25T17:13:06.357Z,102260.49
2023-03-25T17:15:23.140Z,102259.09
2023-03-25T17:17:43.136Z,102260.31
2023-03-25T17:19:57.711Z,102264.32
2023-03-25T17:22:18.911Z,102269.71
2023-03-25T17:24:37.964Z,102268.53
2023-03-25T17:27:09.217Z,102276.20
2023-03-25T17:29:23.277Z,102275.81
2023-03-25T17:31:38.940Z,102278.47
2023-03-25T17:33:54.134Z,102279.94
2023-03-25T17:36:11.840Z,102280.41
2023-03-25T17:38:30.711Z,102278.50
2023-03-25T17:40:43.343Z,102277.21
2023-03-25T17:42:56.721Z,102277.42
2023-03-25T17:45:10.190Z,102276.38
2023-03-25T17:47:24.841Z,102272.58
2023-03-25T17:49:37.907Z,102276.98
2023-03-25T17:51:51.374Z,102275.46
2023-03-25T17:54:03.970Z,102273.36
2023-03-25T17:56:19.019Z,102273.48
2023-03-25T17:58:31.855Z,102273.91
2023-03-25T18:00:44.987Z,102273.80
2023-03-25T18:02:58.019Z,102274.17
2023-03-25T18:05:13.571Z,102276.48
2023-03-25T18:07:26.591Z,102275.45
2023-03-25T18:09:40.858Z,102276.20
2023-03-25T18:11:55.806Z,102275.25
2023-03-25T18:14:09.233Z,102278.60
2023-03-25T18:16:24.547Z,102275.66
2023-03-25T18:18:38.237Z,102271.79
2023-03-25T18:20:54.005Z,102275.23
2023-03-25T18:23:07.564Z,102275.95
2023-03-25T18:25:20.576Z,102273.89
2023-03-25T18:27:43.383Z,102275.19
2023-03-25T18:29:57.706Z,102273.18
2023-03-25T18:32:11.232Z,102269.77
2023-03-25T18:34:26.599Z,102275.08
2023-03-25T18:36:39.515Z,102271.09
2023-03-25T18:38:53.190Z,102269.45
2023-03-25T18:41:06.636Z,102272.23
2023-03-25T18:43:20.114Z,102272.77
2023-03-25T18:45:32.917Z,102274.13
2023-03-25T18:47:45.523Z,102272.47
2023-03-25T18:49:59.883Z,102272.17
2023-03-25T18:52:13.483Z,102267.77
2023-03-25T18:54:26.330Z,102272.73
2023-03-25T18:56:38.968Z,102269.28
2023-03-25T18:58:51.637Z,102267.60
2023-03-25T19:01:05.334Z,102270.53
2023-03-25T19:03:18.461Z,102266.25
2023-03-25T19:05:31.604Z,102265.20
2023-03-25T19:07:45.771Z,102264.61
2023-03-25T19:09:58.538Z,102262.02
2023-03-25T19:12:12.164Z,102254.88
2023-03-25T19:14:25.437Z,102255.97
2023-03-25T19:16:38.560Z,102249.27
2023-03-25T19:18:51.677Z,102251.95
2023-03-25T19:21:05.164Z,102256.64
2023-03-25T19:23:18.997Z,102255.60
2023-03-25T19:25:32.160Z,102254.93
2023-03-25T19:27:45.458Z,102247.81
2023-03-25T19:29:58.201Z,102247.29
2023-03-25T19:32:11.499Z,102242.19
2023-03-25T19:34:25.154Z,102238.71
2023-03-25T19:36:40.489Z,102235.21
2023-03-25T19:38:54.220Z,102232.30
2023-03-25T19:41:12.806Z,102236.21
2023-03-25T19:43:26.000Z,102231.89
2023-03-25T19:45:39.156Z,102229.20
2023-03-25T19:47:53.361Z,102230.56
2023-03-25T19:50:06.183Z,102228.63
2023-03-25T19:52:19.381Z,102225.25
2023-03-25T19:54:33.116Z,102225.36
2023-03-25T19:56:46.147Z,102224.30
2023-03-25T19:59:00.174Z,102221.58
2023-03-25T20:01:14.258Z,102222.13
2023-03-25T20:03:27.718Z,102224.52
2023-03-25T20:05:40.683Z,102220.19
2023-03-25T20:07:56.041Z,102211.73
2023-03-25T20:10:19.669Z,102211.38
2023-03-25T20:12:36.780Z,102207.86
2023-03-25T20:14:51.279Z,102210.58
2023-03-25T20:17:04.734Z,102206.30
2023-03-25T20:19:17.853Z,102201.92
2023-03-25T20:21:31.555Z,102201.84
2023-03-25T20:23:46.281Z,102199.27
2023-03-25T20:25:59.202Z,102197.77
2023-03-25T20:28:11.979Z,102198.92
2023-03-25T20:30:25.448Z,102198.20
2023-03-25T20:32:41.717Z,102191.52
2023-03-25T20:34:55.776Z,102191.05
2023-03-25T20:37:08.709Z,102190.21
2023-03-25T20:39:24.144Z,102186.34
2023-03-25T20:41:37.049Z,102181.14
2023-03-25T20:43:50.187Z,102179.85
2023-03-25T20:46:03.868Z,102181.66
2023-03-25T20:48:16.321Z,102176.67
2023-03-25T20:50:29.205Z,102178.20
2023-03-25T20:52:42.536Z,102174.97
2023-03-25T20:54:59.097Z,102174.44
2023-03-25T20:57:12.459Z,102173.98
2023-03-25T20:59:26.230Z,102172.57
2023-03-25T21:01:39.721Z,102164.80
2023-03-25T21:03:54.346Z,102161.80
2023-03-25T21:06:22.729Z,102159.98
2023-03-25T21:08:38.485Z,102156.46
2023-03-25T21:10:56.514Z,102155.94
2023-03-25T21:13:10.413Z,102150.30
2023-03-25T21:15:23.926Z,102145.78
2023-03-25T21:17:37.508Z,102147.73
2023-03-25T21:19:51.311Z,102144.28
2023-03-25T21:22:04.671Z,102142.23
2023-03-25T21:24:22.400Z,102139.29
2023-03-25T21:26:35.964Z,102134.55
2023-03-25T21:28:49.634Z,102131.55
2023-03-25T21:31:10.634Z,102132.29
2023-03-25T21:33:24.360Z,102129.30
2023-03-25T21:35:37.834Z,102122.88
2023-03-25T21:37:52.833Z,102121.03
2023-03-25T21:40:05.965Z,102119.04
2023-03-25T21:42:18.851Z,102120.61
2023-03-25T21:44:31.990Z,102120.48
2023-03-25T21:46:47.833Z,102114.35
2023-03-25T21:49:02.035Z,102107.08
2023-03-25T21:51:15.670Z,102102.52
2023-03-25T21:53:32.286Z,102103.38
2023-03-25T21:55:45.886Z,102099.23
2023-03-25T21:58:00.562Z,102097.48
2023-03-25T22:00:17.625Z,102099.92
2023-03-25T22:02:30.901Z,102098.18
2023-03-25T22:04:45.345Z,102095.66
2023-03-25T22:06:58.408Z,102095.14
2023-03-25T22:09:12.472Z,102098.13
2023-03-25T22:11:27.089Z,102095.88
2023-03-25T22:13:41.092Z,102088.13
2023-03-25T22:15:54.031Z,102091.31
2023-03-25T22:18:09.109Z,102089.61
2023-03-25T22:20:25.729Z,102088.10
2023-03-25T22:22:39.340Z,102094.02
2023-03-25T22:24:53.252Z,102092.39
2023-03-25T22:27:06.084Z,102088.45
2023-03-25T22:29:19.156Z,102087.21
2023-03-25T22:31:40.597Z,102085.36
2023-03-25T22:33:55.936Z,102086.14
2023-03-25T22:36:16.361Z,102083.88
2023-03-25T22:38:29.762Z,102078.81
2023-03-25T22:40:44.244Z,102077.71
2023-03-25T22:42:57.614Z,102078.56
2023-03-25T22:45:12.116Z,102074.92
2023-03-25T22:47:27.716Z,102077.92
2023-03-25T22:49:40.537Z,102073.94
2023-03-25T22:51:53.603Z,102072.21
2023-03-25T22:54:07.332Z,102072.54
2023-03-25T22:56:21.395Z,102065.58
2023-03-25T22:58:35.565Z,102067.50
2023-03-25T23:00:50.560Z,102066.70
2023-03-25T23:03:04.915Z,102060.04
2023-03-25T23:05:19.747Z,102060.89
2023-03-25T23:07:33.938Z,102062.81
2023-03-25T23:09:48.664Z,102062.60
2023-03-25T23:12:03.295Z,102060.33
2023-03-25T23:14:17.513Z,102058.07
2023-03-25T23:16:35.608Z,102060.73
2023-03-25T23:18:49.198Z,102055.57
2023-03-25T23:21:03.697Z,102052.23
2023-03-25T23:23:16.308Z,102044.04
2023-03-25T23:25:28.974Z,102042.41
2023-03-25T23:27:42.141Z,102042.25
2023-03-25T23:29:54.677Z,102043.14
2023-03-25T23:32:09.306Z,102038.23
2023-03-25T23:34:22.407Z,102040.58
2023-03-25T23:36:37.187Z,102036.42
2023-03-25T23:38:50.991Z,102035.06
2023-03-25T23:41:11.305Z,102035.23
2023-03-25T23:43:25.413Z,102036.77
2023-03-25T23:45:38.282Z,102036.66
2023-03-25T23:47:50.970Z,102037.13
2023-03-25T23:50:04.133Z,102033.00
2023-03-25T23:52:16.928Z,102032.03
2023-03-25T23:54:29.939Z,102033.09
2023-03-25T23:56:43.926Z,102037.27
2023-03-25T23:58:57.403Z,102027.90
